Time;durP1;ratioP1;P1;durP2;ratioP2;P2;SDS_P1;SDS_P2;PMS_P1;PMS_P2;Temp;Humidity;BMP_temperature;BMP_pressure;BME280_temperature;BME280_humidity;BME280_pressure;Samples;Min_cycle;Max_cycle;Signal;HPM_P1;HPM_P2
2023/08/02 00:00:09;;;;;;;16.38;5.72;;;17.40;99.90;;;;;;5052317;28;20403;-76
2023/08/02 00:02:35;;;;;;;17.85;5.40;;;17.40;99.90;;;;;;5052885;28;20112;-76
2023/08/02 00:05:00;;;;;;;16.40;5.47;;;17.40;99.90;;;;;;5051769;28;20096;-76
2023/08/02 00:07:26;;;;;;;19.67;5.57;;;17.30;99.90;;;;;;5052380;28;20021;-76
2023/08/02 00:09:52;;;;;;;19.67;5.72;;;17.30;99.90;;;;;;5051970;28;20013;-76
2023/08/02 00:12:17;;;;;;;17.25;5.05;;;17.30;99.90;;;;;;5052583;28;20021;-76
2023/08/02 00:14:43;;;;;;;18.13;5.20;;;17.20;99.90;;;;;;5051100;28;20025;-76
2023/08/02 00:17:08;;;;;;;12.23;4.97;;;17.20;99.90;;;;;;5041451;28;20600;-76
2023/08/02 00:19:36;;;;;;;13.93;4.63;;;17.20;99.90;;;;;;5051806;28;20021;-76
2023/08/02 00:22:01;;;;;;;18.83;4.97;;;17.20;99.90;;;;;;5050053;28;20029;-76
2023/08/02 00:24:27;;;;;;;17.10;4.97;;;17.20;99.90;;;;;;5037165;28;20021;-76
2023/08/02 00:26:53;;;;;;;20.92;5.43;;;17.10;99.90;;;;;;5043759;28;20029;-76
2023/08/02 00:29:18;;;;;;;16.23;5.15;;;17.10;99.90;;;;;;5050338;28;20028;-76
2023/08/02 00:31:44;;;;;;;14.43;5.43;;;17.10;99.90;;;;;;5047332;28;20028;-76
2023/08/02 00:34:10;;;;;;;19.45;5.47;;;17.20;99.90;;;;;;5047642;28;20468;-76
2023/08/02 00:36:35;;;;;;;17.95;5.20;;;17.20;99.90;;;;;;5052014;28;20091;-76
2023/08/02 00:39:01;;;;;;;14.90;5.35;;;17.20;99.90;;;;;;5049962;28;20529;-76
2023/08/02 00:41:27;;;;;;;21.85;5.82;;;17.20;99.90;;;;;;5050411;28;20032;-76
2023/08/02 00:43:52;;;;;;;22.85;6.10;;;17.20;99.90;;;;;;5051713;28;20029;-76
2023/08/02 00:46:20;;;;;;;14.20;5.30;;;17.20;99.90;;;;;;5051844;28;20091;-76
2023/08/02 00:48:46;;;;;;;18.70;5.47;;;17.30;99.90;;;;;;5051443;28;20511;-76
2023/08/02 00:51:17;;;;;;;18.10;6.20;;;17.30;99.90;;;;;;5045348;28;20113;-76
2023/08/02 00:53:43;;;;;;;17.50;5.63;;;17.30;99.90;;;;;;5037361;28;20026;-76
2023/08/02 00:56:10;;;;;;;15.23;5.75;;;17.30;99.90;;;;;;5049982;28;20020;-76
2023/08/02 00:58:35;;;;;;;17.73;5.70;;;17.30;99.90;;;;;;5051887;28;20177;-76
2023/08/02 01:01:07;;;;;;;18.45;5.60;;;17.30;99.90;;;;;;5045551;28;20503;-76
2023/08/02 01:03:44;;;;;;;16.17;5.47;;;17.30;99.90;;;;;;5051510;28;20087;-76
2023/08/02 01:06:29;;;;;;;18.05;5.32;;;17.30;99.90;;;;;;5051731;28;20078;-76
2023/08/02 01:09:04;;;;;;;16.50;5.13;;;17.40;99.90;;;;;;5050467;28;20021;-76
2023/08/02 01:11:45;;;;;;;21.55;5.05;;;17.40;99.90;;;;;;5047664;28;20393;-76
2023/08/02 01:14:16;;;;;;;18.45;5.10;;;17.40;99.90;;;;;;5051629;28;20025;-76
2023/08/02 01:16:44;;;;;;;18.33;4.72;;;17.30;99.90;;;;;;5050534;28;20096;-76
2023/08/02 01:19:11;;;;;;;17.00;4.95;;;17.30;99.90;;;;;;5036219;28;20275;-76
2023/08/02 01:21:37;;;;;;;16.52;5.28;;;17.30;99.90;;;;;;5032822;28;20030;-76
2023/08/02 01:24:03;;;;;;;19.00;5.30;;;17.30;99.90;;;;;;5047778;28;20021;-76
2023/08/02 01:26:31;;;;;;;15.77;4.82;;;17.30;99.90;;;;;;5050417;28;20084;-76
2023/08/02 01:29:05;;;;;;;15.68;4.90;;;17.30;99.90;;;;;;5039820;28;20026;-76
2023/08/02 01:31:32;;;;;;;18.77;5.15;;;17.30;99.90;;;;;;5032966;28;20017;-76
2023/08/02 01:33:59;;;;;;;18.00;5.10;;;17.30;99.90;;;;;;5036660;28;20171;-76
2023/08/02 01:36:25;;;;;;;17.60;4.85;;;17.20;99.90;;;;;;5051233;28;20021;-76
2023/08/02 01:38:53;;;;;;;21.85;5.10;;;17.30;99.90;;;;;;5051288;28;20028;-76
2023/08/02 01:41:19;;;;;;;18.88;5.07;;;17.30;99.90;;;;;;5044423;28;20033;-77
2023/08/02 01:43:45;;;;;;;15.40;4.63;;;17.30;99.90;;;;;;5051117;28;20028;-76
2023/08/02 01:46:10;;;;;;;24.15;5.55;;;17.30;99.90;;;;;;5039143;28;20334;-76
2023/08/02 01:48:36;;;;;;;17.35;5.03;;;17.30;99.90;;;;;;5051649;28;20517;-76
2023/08/02 01:51:02;;;;;;;22.02;5.10;;;17.30;99.90;;;;;;5043081;28;20021;-76
2023/08/02 01:53:27;;;;;;;13.52;4.95;;;17.30;99.90;;;;;;5051304;28;20527;-76
2023/08/02 01:55:53;;;;;;;14.93;4.95;;;17.30;99.90;;;;;;5048464;28;20025;-76
2023/08/02 01:58:19;;;;;;;15.40;5.30;;;17.20;99.90;;;;;;5050690;28;20095;-76
2023/08/02 02:00:46;;;;;;;18.92;5.68;;;17.20;99.90;;;;;;5051943;28;20548;-76
2023/08/02 02:03:11;;;;;;;20.73;5.80;;;17.20;99.90;;;;;;5054302;28;20025;-76
2023/08/02 02:05:37;;;;;;;22.10;5.75;;;17.20;99.90;;;;;;5068325;28;20058;-76
2023/08/02 02:08:03;;;;;;;15.10;5.65;;;17.10;99.90;;;;;;5069953;28;20025;-76
2023/08/02 02:10:29;;;;;;;18.20;5.40;;;17.10;99.90;;;;;;5052398;28;20029;-76
2023/08/02 02:12:55;;;;;;;19.55;6.03;;;17.10;99.90;;;;;;5045113;28;20033;-76
2023/08/02 02:15:20;;;;;;;18.23;5.85;;;17.00;99.90;;;;;;5051402;28;20392;-76
2023/08/02 02:17:46;;;;;;;15.95;4.90;;;17.00;99.90;;;;;;5050858;28;20025;-76
2023/08/02 02:20:12;;;;;;;18.95;5.78;;;17.00;99.90;;;;;;5039110;28;20028;-76
2023/08/02 02:22:38;;;;;;;15.52;5.50;;;17.00;99.90;;;;;;5050750;28;20037;-76
2023/08/02 02:25:04;;;;;;;22.98;6.03;;;16.90;99.90;;;;;;5041285;28;20102;-76
2023/08/02 02:27:30;;;;;;;16.15;5.25;;;16.90;99.90;;;;;;5052830;28;20047;-76
2023/08/02 02:29:56;;;;;;;17.92;5.53;;;16.90;99.90;;;;;;5054563;28;20139;-76
2023/08/02 02:32:21;;;;;;;17.80;5.80;;;16.90;99.90;;;;;;5047843;28;20028;-76
2023/08/02 02:34:47;;;;;;;17.27;5.47;;;16.90;99.90;;;;;;5054366;28;20029;-76
2023/08/02 02:37:12;;;;;;;19.42;5.07;;;16.90;99.90;;;;;;5054552;28;20017;-76
2023/08/02 02:39:38;;;;;;;19.92;5.50;;;16.90;99.90;;;;;;5050249;28;20017;-76
2023/08/02 02:42:04;;;;;;;18.88;5.90;;;16.90;99.90;;;;;;5051653;28;20029;-76
2023/08/02 02:44:43;;;;;;;18.88;5.03;;;16.90;99.90;;;;;;5051514;28;20013;-76
2023/08/02 02:47:10;;;;;;;23.58;5.55;;;16.80;99.90;;;;;;5054085;28;20021;-76
2023/08/02 02:49:36;;;;;;;15.60;5.20;;;16.80;99.90;;;;;;5054016;28;20017;-76
2023/08/02 02:52:02;;;;;;;22.88;5.97;;;16.80;99.90;;;;;;5052340;28;20441;-76
2023/08/02 02:54:27;;;;;;;16.10;5.95;;;16.80;99.90;;;;;;5047295;28;20017;-76
2023/08/02 02:56:53;;;;;;;19.90;5.65;;;16.80;99.90;;;;;;5048217;28;20026;-76
2023/08/02 02:59:19;;;;;;;16.95;6.10;;;16.80;99.90;;;;;;5049333;28;20037;-76
2023/08/02 03:01:44;;;;;;;23.00;5.72;;;16.80;99.90;;;;;;5053622;28;20029;-76
2023/08/02 03:04:10;;;;;;;21.95;6.03;;;16.80;99.90;;;;;;5053693;28;20095;-76
2023/08/02 03:06:35;;;;;;;21.98;5.40;;;16.80;99.90;;;;;;5053557;28;20025;-77
2023/08/02 03:09:02;;;;;;;20.85;6.10;;;16.90;99.90;;;;;;5054014;28;20071;-76
2023/08/02 03:11:27;;;;;;;20.02;5.30;;;16.90;99.90;;;;;;5052639;28;20484;-76
2023/08/02 03:13:53;;;;;;;21.10;5.30;;;16.90;99.90;;;;;;5042138;28;20101;-76
2023/08/02 03:16:19;;;;;;;18.08;5.60;;;16.90;99.90;;;;;;5049578;28;20100;-76
2023/08/02 03:18:44;;;;;;;17.80;5.00;;;16.90;99.90;;;;;;5040647;28;20028;-76
2023/08/02 03:21:10;;;;;;;19.88;5.82;;;16.90;99.90;;;;;;5046409;28;20044;-76
2023/08/02 03:23:35;;;;;;;19.02;5.90;;;16.90;99.90;;;;;;5038810;28;20029;-76
2023/08/02 03:26:01;;;;;;;19.75;5.47;;;16.90;99.90;;;;;;5053504;28;20017;-76
2023/08/02 03:28:27;;;;;;;16.42;5.30;;;16.90;99.90;;;;;;5053074;28;20036;-76
2023/08/02 03:30:56;;;;;;;16.88;5.10;;;16.90;99.90;;;;;;5050504;28;20018;-75
2023/08/02 03:33:21;;;;;;;21.17;5.82;;;16.90;99.90;;;;;;5042885;28;20024;-75
2023/08/02 03:35:47;;;;;;;16.92;5.47;;;16.90;99.90;;;;;;5053100;28;20020;-75
2023/08/02 03:38:13;;;;;;;19.85;5.75;;;16.90;99.90;;;;;;5048067;28;20021;-75
2023/08/02 03:40:38;;;;;;;21.40;5.85;;;16.90;99.90;;;;;;5051563;28;20325;-76
2023/08/02 03:43:04;;;;;;;16.08;5.60;;;16.90;99.90;;;;;;5052547;28;20025;-75
2023/08/02 03:45:30;;;;;;;18.15;6.10;;;16.90;99.90;;;;;;5053126;28;20017;-76
2023/08/02 03:47:55;;;;;;;17.45;5.00;;;16.90;99.90;;;;;;5049612;28;20489;-76
2023/08/02 03:50:21;;;;;;;23.42;5.60;;;16.90;99.90;;;;;;5047307;28;20416;-75
2023/08/02 03:52:48;;;;;;;18.88;5.45;;;17.00;99.90;;;;;;5051289;28;20036;-76
2023/08/02 03:55:14;;;;;;;18.40;5.78;;;17.00;99.90;;;;;;5047168;28;20492;-76
2023/08/02 03:57:39;;;;;;;17.35;5.78;;;17.00;99.90;;;;;;5053026;28;20010;-76
2023/08/02 04:00:06;;;;;;;15.88;6.03;;;17.00;99.90;;;;;;5052030;28;20041;-76
2023/08/02 04:02:32;;;;;;;17.23;6.30;;;17.00;99.90;;;;;;5044053;28;20076;-75
2023/08/02 04:04:58;;;;;;;14.77;5.88;;;17.00;99.90;;;;;;5049161;28;20036;-76
2023/08/02 04:07:23;;;;;;;17.27;6.55;;;17.00;99.90;;;;;;5052543;28;20512;-76
2023/08/02 04:09:49;;;;;;;17.35;6.88;;;17.00;99.90;;;;;;5051567;28;20025;-76
2023/08/02 04:12:17;;;;;;;18.83;7.10;;;16.90;99.90;;;;;;5053638;28;20051;-76
2023/08/02 04:14:43;;;;;;;18.63;7.85;;;17.00;99.90;;;;;;5051160;28;20016;-76
2023/08/02 04:17:09;;;;;;;21.38;9.05;;;16.90;99.90;;;;;;5050781;28;20506;-75
2023/08/02 04:19:35;;;;;;;22.00;9.88;;;16.90;99.90;;;;;;5034580;28;20139;-76
2023/08/02 04:22:00;;;;;;;24.67;9.90;;;16.90;99.90;;;;;;5048505;28;20365;-76
2023/08/02 04:24:26;;;;;;;21.67;9.80;;;16.90;99.90;;;;;;5051167;28;20029;-76
2023/08/02 04:26:51;;;;;;;22.67;10.50;;;16.90;99.90;;;;;;5052694;28;20021;-76
2023/08/02 04:29:19;;;;;;;19.48;9.45;;;16.90;99.90;;;;;;5052541;28;20013;-76
2023/08/02 04:31:44;;;;;;;21.08;8.63;;;16.90;99.90;;;;;;5052690;28;20016;-76
2023/08/02 04:34:10;;;;;;;18.23;8.23;;;16.90;99.90;;;;;;5052172;28;20031;-76
2023/08/02 04:36:36;;;;;;;18.42;7.55;;;16.80;99.90;;;;;;5051738;28;20017;-76
2023/08/02 04:39:02;;;;;;;17.65;7.85;;;16.80;99.90;;;;;;5051795;28;20025;-75
2023/08/02 04:41:27;;;;;;;13.93;7.22;;;16.80;99.90;;;;;;5048638;28;20094;-76
2023/08/02 04:43:53;;;;;;;15.95;7.38;;;16.80;99.90;;;;;;5051689;28;20423;-76
2023/08/02 04:46:22;;;;;;;16.25;7.40;;;16.80;99.90;;;;;;5051538;28;20023;-76
2023/08/02 04:48:47;;;;;;;15.80;6.88;;;16.80;99.90;;;;;;5048894;28;20468;-76
2023/08/02 04:51:13;;;;;;;10.93;6.43;;;16.70;99.90;;;;;;5052149;28;20070;-76
2023/08/02 04:53:40;;;;;;;12.68;6.35;;;16.70;99.90;;;;;;5052184;28;20017;-75
2023/08/02 04:56:09;;;;;;;13.38;6.28;;;16.80;99.90;;;;;;5053182;28;20052;-76
2023/08/02 04:58:35;;;;;;;11.60;5.68;;;16.70;99.90;;;;;;5051001;28;20060;-76
2023/08/02 05:01:04;;;;;;;14.82;5.78;;;16.60;99.90;;;;;;5065576;28;20025;-75
2023/08/02 05:03:31;;;;;;;13.93;6.47;;;16.70;99.90;;;;;;5058230;28;20159;-75
2023/08/02 05:06:00;;;;;;;15.25;6.80;;;16.70;99.90;;;;;;5066131;28;20025;-75
2023/08/02 05:08:29;;;;;;;16.63;6.32;;;16.70;99.90;;;;;;5053930;28;20028;-75
2023/08/02 05:10:55;;;;;;;11.10;5.93;;;16.70;99.90;;;;;;5051789;28;20494;-75
2023/08/02 05:13:27;;;;;;;15.88;6.18;;;16.70;99.90;;;;;;5051427;28;20131;-75
2023/08/02 05:15:55;;;;;;;11.60;6.05;;;16.70;99.90;;;;;;5047750;28;20049;-75
2023/08/02 05:18:21;;;;;;;16.23;6.82;;;16.70;99.90;;;;;;5040629;28;20032;-76
2023/08/02 05:20:46;;;;;;;11.85;5.90;;;16.70;99.90;;;;;;5050807;28;20451;-76
2023/08/02 05:23:12;;;;;;;10.18;6.47;;;16.70;99.90;;;;;;5050309;28;20488;-76
2023/08/02 05:25:38;;;;;;;10.82;6.05;;;16.70;99.90;;;;;;5050047;28;20116;-76
2023/08/02 05:28:04;;;;;;;12.55;6.38;;;16.70;99.90;;;;;;5050272;28;20075;-75
2023/08/02 05:30:31;;;;;;;12.85;6.25;;;16.70;99.90;;;;;;5051441;28;20025;-76
2023/08/02 05:32:57;;;;;;;13.15;6.57;;;16.70;99.90;;;;;;5052410;28;20550;-75
2023/08/02 05:35:24;;;;;;;15.98;6.30;;;16.60;99.90;;;;;;5044256;28;20021;-76
2023/08/02 05:37:50;;;;;;;14.63;6.18;;;16.70;99.90;;;;;;5047636;28;20221;-75
2023/08/02 05:40:15;;;;;;;10.38;5.80;;;16.70;99.90;;;;;;5050435;28;20017;-75
2023/08/02 05:42:41;;;;;;;12.20;6.05;;;16.70;99.90;;;;;;5051216;28;20041;-75
2023/08/02 05:45:07;;;;;;;8.60;5.53;;;16.70;99.90;;;;;;5050058;28;20032;-75
2023/08/02 05:47:33;;;;;;;10.60;5.97;;;16.70;99.90;;;;;;5050222;28;20384;-75
2023/08/02 05:49:59;;;;;;;11.88;5.68;;;16.70;99.90;;;;;;5049893;28;20025;-75
2023/08/02 05:52:25;;;;;;;9.90;5.65;;;16.70;99.90;;;;;;5041789;28;20511;-75
2023/08/02 05:54:50;;;;;;;8.18;5.55;;;16.70;99.90;;;;;;5049841;28;20040;-75
2023/08/02 05:57:16;;;;;;;9.07;5.75;;;16.70;99.90;;;;;;5050268;28;20543;-76
2023/08/02 05:59:42;;;;;;;8.07;5.47;;;16.70;99.90;;;;;;5049920;28;20045;-76
2023/08/02 06:02:08;;;;;;;10.85;5.45;;;16.70;99.90;;;;;;5047917;28;20100;-76
2023/08/02 06:04:37;;;;;;;6.80;5.00;;;16.70;99.90;;;;;;5048422;28;20020;-76
2023/08/02 06:07:04;;;;;;;7.65;4.75;;;16.70;99.90;;;;;;5053896;28;20096;-76
2023/08/02 06:09:29;;;;;;;10.20;4.82;;;16.70;99.90;;;;;;5053792;28;20021;-76
2023/08/02 06:11:55;;;;;;;8.10;4.78;;;16.70;99.90;;;;;;5052390;28;20032;-75
2023/08/02 06:14:21;;;;;;;8.02;4.78;;;16.70;99.90;;;;;;5053952;28;20633;-76
2023/08/02 06:16:47;;;;;;;6.60;4.50;;;16.70;99.90;;;;;;5049681;28;20021;-76
2023/08/02 06:19:13;;;;;;;5.85;3.92;;;16.70;99.90;;;;;;5053754;28;20060;-75
2023/08/02 06:21:38;;;;;;;7.03;4.13;;;16.70;99.90;;;;;;5053692;28;20396;-76
2023/08/02 06:24:04;;;;;;;9.75;4.00;;;16.70;99.90;;;;;;5050511;28;20396;-75
2023/08/02 06:26:30;;;;;;;5.40;3.63;;;16.70;99.90;;;;;;5046625;28;20021;-76
2023/08/02 06:28:56;;;;;;;8.43;3.50;;;16.70;99.90;;;;;;5053368;28;20017;-76
2023/08/02 06:31:22;;;;;;;5.43;3.63;;;16.70;99.90;;;;;;5052593;28;20055;-76
2023/08/02 06:33:47;;;;;;;4.25;3.30;;;16.70;99.90;;;;;;5046688;28;20021;-75
2023/08/02 06:36:13;;;;;;;5.20;3.60;;;16.70;99.90;;;;;;5048452;28;20373;-76
2023/08/02 06:38:39;;;;;;;5.07;2.78;;;16.70;99.90;;;;;;5052774;28;20384;-76
2023/08/02 06:41:05;;;;;;;3.38;2.50;;;16.70;99.90;;;;;;5053565;28;20029;-76
2023/08/02 06:43:31;;;;;;;5.53;2.70;;;16.70;99.90;;;;;;5053363;28;20049;-75
2023/08/02 06:45:57;;;;;;;4.03;2.53;;;16.80;99.90;;;;;;5051603;28;20017;-75
2023/08/02 06:48:24;;;;;;;5.13;2.50;;;16.80;99.90;;;;;;5046357;28;20026;-75
2023/08/02 06:50:50;;;;;;;5.22;2.15;;;16.80;99.90;;;;;;5051431;28;20032;-76
2023/08/02 06:53:16;;;;;;;4.60;2.60;;;16.80;99.90;;;;;;5040765;28;20108;-75
2023/08/02 06:55:42;;;;;;;3.63;2.25;;;16.80;99.90;;;;;;5050345;28;20170;-75
2023/08/02 06:58:08;;;;;;;3.38;2.13;;;16.80;99.90;;;;;;5044614;28;20044;-75
2023/08/02 07:00:33;;;;;;;2.28;1.75;;;16.90;99.90;;;;;;5046696;28;20086;-75
2023/08/02 07:03:00;;;;;;;3.38;1.73;;;16.90;99.90;;;;;;5049875;28;20082;-75
2023/08/02 07:05:28;;;;;;;3.47;1.65;;;16.90;99.90;;;;;;5052670;28;20092;-75
2023/08/02 07:07:58;;;;;;;1.80;1.50;;;16.90;99.90;;;;;;5052835;28;20021;-75
2023/08/02 07:10:25;;;;;;;2.42;1.48;;;16.90;99.90;;;;;;5053022;28;20255;-75
2023/08/02 07:12:51;;;;;;;2.00;1.50;;;16.90;99.90;;;;;;5051898;28;20028;-75
2023/08/02 07:15:17;;;;;;;1.50;1.40;;;17.00;99.90;;;;;;5036902;28;20026;-75
2023/08/02 07:17:44;;;;;;;1.48;1.30;;;17.00;99.90;;;;;;5053070;28;20017;-75
2023/08/02 07:20:13;;;;;;;1.55;1.38;;;17.00;99.90;;;;;;5040777;28;20396;-75
2023/08/02 07:22:44;;;;;;;1.20;1.10;;;17.00;99.90;;;;;;5051058;28;20079;-75
2023/08/02 07:25:10;;;;;;;1.63;1.20;;;17.00;99.90;;;;;;5052960;28;20549;-75
2023/08/02 07:27:36;;;;;;;1.67;1.20;;;17.10;99.90;;;;;;5052678;28;20059;-75
2023/08/02 07:30:03;;;;;;;1.33;1.00;;;17.10;99.90;;;;;;5045118;28;20033;-75
2023/08/02 07:32:32;;;;;;;1.40;1.10;;;17.10;99.90;;;;;;5052592;28;20052;-75
2023/08/02 07:34:58;;;;;;;1.58;1.10;;;17.10;99.90;;;;;;5052343;28;20044;-75
2023/08/02 07:37:24;;;;;;;1.15;1.00;;;17.10;99.90;;;;;;5052023;28;20013;-75
2023/08/02 07:39:50;;;;;;;1.63;1.00;;;17.20;99.90;;;;;;5049232;28;20024;-75
2023/08/02 07:42:16;;;;;;;1.60;1.10;;;17.20;99.90;;;;;;5052137;28;20029;-75
2023/08/02 07:44:42;;;;;;;2.35;0.70;;;17.20;99.90;;;;;;5052147;28;20021;-75
2023/08/02 07:47:08;;;;;;;1.48;0.85;;;17.10;99.90;;;;;;5053406;28;20036;-75
2023/08/02 07:49:34;;;;;;;2.15;0.90;;;17.20;99.90;;;;;;5054314;28;20021;-76
2023/08/02 07:52:00;;;;;;;1.10;1.10;;;17.20;99.90;;;;;;5047688;28;20453;-75
2023/08/02 07:54:25;;;;;;;0.80;0.80;;;17.20;99.90;;;;;;5066013;28;20113;-75
2023/08/02 07:56:51;;;;;;;1.30;0.70;;;17.20;99.90;;;;;;5072419;28;20021;-75
2023/08/02 07:59:17;;;;;;;1.23;0.88;;;17.20;99.90;;;;;;5056847;28;20060;-75
2023/08/02 08:01:43;;;;;;;1.33;1.00;;;17.20;99.90;;;;;;5053672;28;20103;-76
2023/08/02 08:04:09;;;;;;;1.23;1.08;;;17.20;99.90;;;;;;5053352;28;20017;-76
2023/08/02 08:06:34;;;;;;;1.63;1.10;;;17.30;99.90;;;;;;5053061;28;20025;-76
2023/08/02 08:09:00;;;;;;;1.88;1.10;;;17.30;99.90;;;;;;5053541;28;20075;-76
2023/08/02 08:11:28;;;;;;;2.22;1.02;;;17.30;99.90;;;;;;5052997;28;20053;-75
2023/08/02 08:13:53;;;;;;;2.65;1.10;;;17.30;99.90;;;;;;5053363;28;20087;-75
2023/08/02 08:16:19;;;;;;;1.45;1.20;;;17.30;99.90;;;;;;5048918;28;20017;-76
2023/08/02 08:18:45;;;;;;;1.98;1.23;;;17.40;99.90;;;;;;5051535;28;20019;-75
2023/08/02 08:21:10;;;;;;;1.75;1.50;;;17.40;99.90;;;;;;5042166;28;20353;-76
2023/08/02 08:23:36;;;;;;;3.65;1.50;;;17.50;99.90;;;;;;5052457;28;20559;-76
2023/08/02 08:26:02;;;;;;;1.60;1.50;;;17.60;99.90;;;;;;5037548;28;20076;-76
2023/08/02 08:28:28;;;;;;;2.83;1.63;;;17.70;99.90;;;;;;5048754;28;20057;-76
2023/08/02 08:31:01;;;;;;;1.67;1.55;;;17.80;99.90;;;;;;5052439;28;20047;-76
2023/08/02 08:33:26;;;;;;;1.60;1.50;;;17.90;99.90;;;;;;5052610;28;20068;-75
2023/08/02 08:35:52;;;;;;;1.80;1.70;;;18.10;99.90;;;;;;5051408;28;20057;-75
2023/08/02 08:38:18;;;;;;;2.08;1.85;;;18.20;99.90;;;;;;5047807;28;20032;-75
2023/08/02 08:40:53;;;;;;;2.55;2.03;;;18.30;99.90;;;;;;5049130;28;20078;-75
2023/08/02 08:43:20;;;;;;;2.30;1.92;;;18.40;99.90;;;;;;5049165;28;20035;-76
2023/08/02 08:45:46;;;;;;;1.95;1.75;;;18.40;99.90;;;;;;5052385;28;20078;-75
2023/08/02 08:48:12;;;;;;;2.45;2.00;;;18.50;99.90;;;;;;5051627;28;20380;-75
2023/08/02 08:50:41;;;;;;;2.42;2.10;;;18.50;99.90;;;;;;5044316;28;20050;-76
2023/08/02 08:53:10;;;;;;;2.92;2.17;;;18.60;99.90;;;;;;5051961;28;20021;-76
2023/08/02 08:55:36;;;;;;;3.60;2.65;;;18.60;99.90;;;;;;5052337;28;20021;-75
2023/08/02 08:58:02;;;;;;;3.30;3.00;;;18.60;99.90;;;;;;5046269;28;20033;-76
2023/08/02 09:00:31;;;;;;;3.20;2.90;;;18.50;99.90;;;;;;5051692;28;20029;-75
2023/08/02 09:02:59;;;;;;;3.28;2.95;;;18.60;99.90;;;;;;5048385;28;20045;-76
2023/08/02 09:05:27;;;;;;;3.75;3.40;;;18.60;99.90;;;;;;5050013;28;20515;-76
2023/08/02 09:07:59;;;;;;;6.28;3.25;;;18.60;99.90;;;;;;5050791;28;20439;-75
2023/08/02 09:10:26;;;;;;;3.67;2.67;;;18.70;99.90;;;;;;5037663;28;20017;-75
2023/08/02 09:12:52;;;;;;;4.35;2.78;;;18.80;99.90;;;;;;5050403;28;20040;-76
2023/08/02 09:15:18;;;;;;;2.88;2.53;;;18.80;99.90;;;;;;5046675;28;20503;-75
2023/08/02 09:17:48;;;;;;;3.10;2.17;;;18.90;99.90;;;;;;5050601;28;20099;-75
2023/08/02 09:20:14;;;;;;;3.97;2.17;;;18.90;99.90;;;;;;5050225;28;20032;-76
2023/08/02 09:22:40;;;;;;;5.03;2.42;;;19.00;99.90;;;;;;5050914;28;20032;-76
2023/08/02 09:25:11;;;;;;;6.25;2.33;;;19.00;99.90;;;;;;5050534;28;20029;-76
2023/08/02 09:27:37;;;;;;;5.55;2.30;;;19.10;99.90;;;;;;5042279;28;20464;-76
2023/08/02 09:30:03;;;;;;;5.80;2.13;;;19.20;99.90;;;;;;5050286;28;20110;-76
2023/08/02 09:32:29;;;;;;;5.68;1.83;;;19.30;99.90;;;;;;5048569;28;20025;-76
2023/08/02 09:34:57;;;;;;;3.90;1.88;;;19.30;99.90;;;;;;5046489;28;20035;-76
2023/08/02 09:37:32;;;;;;;6.68;1.80;;;19.40;99.90;;;;;;5049567;28;20303;-75
2023/08/02 09:39:58;;;;;;;10.32;1.75;;;19.60;99.90;;;;;;5050132;28;20020;-76
2023/08/02 09:42:26;;;;;;;6.80;1.65;;;19.70;99.90;;;;;;5050316;28;20037;-75
2023/08/02 09:44:54;;;;;;;9.52;1.92;;;19.90;99.90;;;;;;5046407;28;20027;-75
2023/08/02 09:47:19;;;;;;;10.05;2.33;;;19.90;99.90;;;;;;5050288;28;20103;-75
2023/08/02 09:50:05;;;;;;;10.13;2.65;;;20.00;99.90;;;;;;5046036;28;20093;-75
2023/08/02 09:52:30;;;;;;;;;;;20.10;99.90;;;;;;5042126;28;20379;-76
2023/08/02 09:54:56;;;;;;;8.88;2.20;;;20.10;99.90;;;;;;5043793;28;19932;-76
2023/08/02 09:57:28;;;;;;;11.63;2.22;;;20.10;99.90;;;;;;5044344;28;20088;-76
2023/08/02 09:59:55;;;;;;;9.23;2.55;;;20.20;99.90;;;;;;5046224;28;20176;-75
2023/08/02 10:02:25;;;;;;;14.93;2.60;;;20.10;99.90;;;;;;5039996;28;20446;-75
2023/08/02 10:04:56;;;;;;;12.32;2.30;;;20.10;99.90;;;;;;5049864;28;20071;-75
2023/08/02 10:07:27;;;;;;;13.45;3.08;;;20.10;99.90;;;;;;5049562;28;20386;-76
2023/08/02 10:09:58;;;;;;;9.30;2.33;;;20.10;99.90;;;;;;5036751;28;20317;-76
2023/08/02 10:12:25;;;;;;;10.68;2.42;;;20.20;99.90;;;;;;5050164;28;20017;-76
2023/08/02 10:14:52;;;;;;;12.93;2.25;;;20.30;99.90;;;;;;5049680;28;20071;-76
2023/08/02 10:17:19;;;;;;;14.20;2.60;;;20.30;99.90;;;;;;5050061;28;20149;-75
2023/08/02 10:19:46;;;;;;;13.25;2.30;;;20.30;99.90;;;;;;5049736;28;20056;-75
2023/08/02 10:22:13;;;;;;;17.02;2.50;;;20.40;99.90;;;;;;5049738;28;20036;-76
2023/08/02 10:24:40;;;;;;;11.95;2.58;;;20.40;99.90;;;;;;5050212;28;20059;-75
2023/08/02 10:27:07;;;;;;;14.18;2.40;;;20.60;99.90;;;;;;5049931;28;20488;-75
2023/08/02 10:29:34;;;;;;;11.00;2.50;;;20.70;99.90;;;;;;5044063;28;20473;-75
2023/08/02 10:32:14;;;;;;;13.75;2.78;;;20.80;99.90;;;;;;5042180;28;20052;-76
2023/08/02 10:34:40;;;;;;;13.93;2.55;;;20.70;99.90;;;;;;5039465;28;20096;-76
2023/08/02 10:37:06;;;;;;;16.00;3.10;;;20.60;99.90;;;;;;5049419;28;20108;-76
2023/08/02 10:39:50;;;;;;;12.90;2.15;;;20.60;99.90;;;;;;5046048;28;20083;-76
2023/08/02 10:42:20;;;;;;;7.70;1.67;;;20.70;99.90;;;;;;5049632;28;20128;-76
2023/08/02 10:44:55;;;;;;;11.35;2.10;;;20.80;99.90;;;;;;5049676;28;20052;-76
2023/08/02 10:47:24;;;;;;;13.77;2.08;;;20.90;99.90;;;;;;5057954;28;20028;-76
2023/08/02 10:49:51;;;;;;;11.65;1.70;;;21.00;99.90;;;;;;5066099;28;20039;-76
2023/08/02 10:52:26;;;;;;;12.18;1.60;;;21.10;99.90;;;;;;5061511;28;20029;-76
2023/08/02 10:55:21;;;;;;;8.70;1.40;;;21.30;99.90;;;;;;5052281;28;20014;-76
2023/08/02 10:57:56;;;;;;;11.30;1.70;;;21.40;99.90;;;;;;5047386;28;20068;-76
2023/08/02 11:00:25;;;;;;;9.23;1.60;;;21.50;99.90;;;;;;5055500;28;20017;-76
2023/08/02 11:02:52;;;;;;;11.10;1.98;;;21.70;99.90;;;;;;5054115;28;20060;-76
2023/08/02 11:05:37;;;;;;;11.93;1.52;;;21.70;99.90;;;;;;5048205;28;20472;-76
2023/08/02 11:08:03;;;;;;;9.20;1.77;;;21.70;99.90;;;;;;5053044;28;20025;-75
2023/08/02 11:10:28;;;;;;;15.32;1.80;;;21.60;99.90;;;;;;5053266;28;20036;-75
2023/08/02 11:12:55;;;;;;;15.52;1.88;;;21.60;99.90;;;;;;5053559;28;20112;-76
2023/08/02 11:15:22;;;;;;;13.13;1.88;;;21.70;99.90;;;;;;5036489;28;20481;-76
2023/08/02 11:17:54;;;;;;;12.40;1.90;;;21.60;99.90;;;;;;5053585;28;20032;-76
2023/08/02 11:20:24;;;;;;;8.55;1.73;;;21.60;99.90;;;;;;5053382;28;20025;-76
2023/08/02 11:22:50;;;;;;;13.27;2.28;;;21.60;99.90;;;;;;5047040;28;20036;-75
2023/08/02 11:25:21;;;;;;;14.10;2.10;;;21.60;99.90;;;;;;5049501;28;20103;-76
2023/08/02 11:27:47;;;;;;;11.95;1.75;;;21.70;99.90;;;;;;5048085;28;20025;-76
2023/08/02 11:30:19;;;;;;;7.53;1.60;;;21.70;99.90;;;;;;5048808;28;20021;-76
2023/08/02 11:32:46;;;;;;;10.93;1.55;;;21.80;99.90;;;;;;5053658;28;20423;-76
2023/08/02 11:35:19;;;;;;;9.00;1.13;;;21.90;99.90;;;;;;5047292;28;20373;-76
2023/08/02 11:37:45;;;;;;;10.48;1.70;;;22.00;99.90;;;;;;5053443;28;20013;-76
2023/08/02 11:40:12;;;;;;;8.82;1.20;;;22.00;99.90;;;;;;5053034;28;20139;-75
2023/08/02 11:42:51;;;;;;;6.05;1.33;;;22.10;99.90;;;;;;5053107;28;20029;-76
2023/08/02 11:45:33;;;;;;;5.72;0.98;;;22.10;99.90;;;;;;5042817;28;20025;-75
2023/08/02 11:48:00;;;;;;;9.70;1.40;;;22.30;99.90;;;;;;5048226;28;20045;-75
2023/08/02 11:50:27;;;;;;;7.15;1.20;;;22.50;99.90;;;;;;5047968;28;20534;-74
2023/08/02 11:53:06;;;;;;;11.60;1.50;;;22.50;99.90;;;;;;5050965;28;20067;-75
2023/08/02 11:55:35;;;;;;;8.05;1.30;;;22.50;99.90;;;;;;5049823;28;20108;-75
2023/08/02 11:58:03;;;;;;;10.05;1.50;;;22.70;99.90;;;;;;5049526;28;20013;-75
2023/08/02 12:00:32;;;;;;;8.60;1.60;;;22.90;99.90;;;;;;5049402;28;20472;-75
2023/08/02 12:03:11;;;;;;;7.15;1.45;;;23.00;99.90;;;;;;5049224;28;20458;-75
2023/08/02 12:05:37;;;;;;;7.95;1.50;;;22.90;99.90;;;;;;5052334;28;20052;-75
2023/08/02 12:08:19;;;;;;;11.48;1.65;;;22.80;99.90;;;;;;5052113;28;20048;-76
2023/08/02 12:10:46;;;;;;;8.27;1.45;;;22.80;99.90;;;;;;5052503;28;20020;-77
2023/08/02 12:13:15;;;;;;;8.30;1.10;;;22.60;99.90;;;;;;5052115;28;20472;-77
2023/08/02 12:15:57;;;;;;;5.05;1.23;;;22.70;99.90;;;;;;5051988;28;20389;-77
2023/08/02 12:18:22;;;;;;;7.32;1.17;;;22.60;99.90;;;;;;5052037;28;20369;-77
2023/08/02 12:20:48;;;;;;;8.43;1.23;;;22.50;99.90;;;;;;5052018;28;20024;-77
2023/08/02 12:23:29;;;;;;;7.90;1.13;;;22.30;99.90;;;;;;5051870;28;20037;-76
2023/08/02 12:25:55;;;;;;;9.65;1.50;;;22.30;99.90;;;;;;5052027;28;20512;-76
2023/08/02 12:28:21;;;;;;;7.95;1.40;;;22.40;99.90;;;;;;5038822;28;20017;-77
2023/08/02 12:31:03;;;;;;;8.73;1.48;;;22.60;99.90;;;;;;5049161;28;20028;-77
2023/08/02 12:33:29;;;;;;;9.73;1.23;;;22.70;99.90;;;;;;5052172;28;20025;-75
2023/08/02 12:35:55;;;;;;;8.57;1.23;;;22.60;99.90;;;;;;5051479;28;20361;-76
2023/08/02 12:38:21;;;;;;;12.30;1.70;;;22.70;99.90;;;;;;5043762;28;20108;-76
2023/08/02 12:40:46;;;;;;;10.85;1.55;;;22.70;99.90;;;;;;5047594;28;20498;-75